createdAt,value
2022-11-19T00:01:09.001Z,7.75
2022-11-19T00:03:36.947Z,8.80
2022-11-19T00:06:06.271Z,8.25
2022-11-19T00:08:33.241Z,8.13
2022-11-19T00:11:11.514Z,9.13
2022-11-19T00:13:39.718Z,8.23
2022-11-19T00:16:11.875Z,8.15
2022-11-19T00:18:38.896Z,8.10
2022-11-19T00:21:11.031Z,8.68
2022-11-19T00:23:37.680Z,8.37
2022-11-19T00:26:09.163Z,7.38
2022-11-19T00:28:35.900Z,8.32
2022-11-19T00:31:04.276Z,7.47
2022-11-19T00:33:30.866Z,7.72
2022-11-19T00:35:58.364Z,7.53
2022-11-19T00:38:24.893Z,8.85
2022-11-19T00:40:51.700Z,7.65
2022-11-19T00:43:44.548Z,8.55
2022-11-19T00:46:11.283Z,7.55
2022-11-19T00:48:39.112Z,8.93
2022-11-19T00:51:07.107Z,7.65
2022-11-19T00:53:33.636Z,8.68
2022-11-19T00:56:01.875Z,9.50
2022-11-19T00:58:28.494Z,8.55
2022-11-19T01:00:55.018Z,8.18
2022-11-19T01:03:22.370Z,8.23
2022-11-19T01:05:48.820Z,8.13
2022-11-19T01:08:15.362Z,7.43
2022-11-19T01:10:42.549Z,8.57
2022-11-19T01:13:28.158Z,7.43
2022-11-19T01:15:54.590Z,7.95
2022-11-19T01:18:21.108Z,7.82
2022-11-19T01:20:47.864Z,8.20
2022-11-19T01:23:14.325Z,8.77
2022-11-19T01:25:40.793Z,7.82
2022-11-19T01:28:08.005Z,7.75
2022-11-19T01:30:34.638Z,8.10
2022-11-19T01:33:01.211Z,8.25
2022-11-19T01:35:27.726Z,8.85
2022-11-19T01:37:54.288Z,8.13
2022-11-19T01:40:20.870Z,8.50
2022-11-19T01:42:49.823Z,6.80
2022-11-19T01:45:34.750Z,8.63
2022-11-19T01:48:08.242Z,8.48
2022-11-19T01:50:39.361Z,7.72
2022-11-19T01:53:09.304Z,7.90
2022-11-19T01:55:37.857Z,8.93
2022-11-19T01:58:07.142Z,8.93
2022-11-19T02:00:34.016Z,8.05
2022-11-19T02:03:00.995Z,6.95
2022-11-19T02:05:28.241Z,7.90
2022-11-19T02:07:57.490Z,7.95
2022-11-19T02:10:49.380Z,8.45
2022-11-19T02:13:29.019Z,7.35
2022-11-19T02:16:06.754Z,8.32
2022-11-19T02:18:56.322Z,7.63
2022-11-19T02:21:59.089Z,8.07
2022-11-19T02:24:54.695Z,7.25
2022-11-19T02:28:00.916Z,7.20
2022-11-19T02:30:42.051Z,6.85
2022-11-19T02:33:16.557Z,6.97
2022-11-19T02:36:05.709Z,8.13
2022-11-19T02:38:41.585Z,7.35
2022-11-19T02:41:36.693Z,7.90
2022-11-19T02:44:24.903Z,7.25
2022-11-19T02:46:53.643Z,7.20
2022-11-19T02:49:23.613Z,7.55
2022-11-19T02:51:50.563Z,7.50
2022-11-19T02:54:17.827Z,6.95
2022-11-19T02:56:47.607Z,7.40
2022-11-19T02:59:35.047Z,7.22
2022-11-19T03:02:23.357Z,7.57
2022-11-19T03:04:49.999Z,5.97
2022-11-19T03:07:19.163Z,7.10
2022-11-19T03:09:56.296Z,6.50
2022-11-19T03:12:28.531Z,7.38
2022-11-19T03:15:20.373Z,6.78
2022-11-19T03:18:17.673Z,6.53
2022-11-19T03:20:55.419Z,6.72
2022-11-19T03:24:02.845Z,7.10
2022-11-19T03:26:44.560Z,5.88
2022-11-19T03:29:14.082Z,7.85
2022-11-19T03:31:50.569Z,6.13
2022-11-19T03:34:20.701Z,7.13
2022-11-19T03:36:50.866Z,6.30
2022-11-19T03:39:20.173Z,6.10
2022-11-19T03:41:49.729Z,6.35
2022-11-19T03:44:24.509Z,6.60
2022-11-19T03:46:57.332Z,4.95
2022-11-19T03:49:29.144Z,6.32
2022-11-19T03:52:17.359Z,6.85
2022-11-19T03:54:43.989Z,6.22
2022-11-19T03:57:17.140Z,5.40
2022-11-19T03:59:43.876Z,4.95
2022-11-19T04:02:11.894Z,5.90
2022-11-19T04:04:39.028Z,5.22
2022-11-19T04:07:10.797Z,5.25
2022-11-19T04:09:38.954Z,5.82
2022-11-19T04:12:06.645Z,5.80
2022-11-19T04:14:33.200Z,6.57
2022-11-19T04:17:00.112Z,6.07
2022-11-19T04:19:26.631Z,4.97
2022-11-19T04:21:53.071Z,6.05
2022-11-19T04:24:19.650Z,5.85
2022-11-19T04:26:46.215Z,5.78
2022-11-19T04:29:12.893Z,4.88
2022-11-19T04:31:39.746Z,6.28
2022-11-19T04:34:06.390Z,4.95
2022-11-19T04:36:33.029Z,5.53
2022-11-19T04:38:59.581Z,5.20
2022-11-19T04:41:26.116Z,4.40
2022-11-19T04:43:53.010Z,4.50
2022-11-19T04:46:19.461Z,5.47
2022-11-19T04:48:46.049Z,6.97
2022-11-19T04:51:12.721Z,4.72
2022-11-19T04:53:39.384Z,4.22
2022-11-19T04:56:07.451Z,4.68
2022-11-19T04:58:34.443Z,5.07
2022-11-19T05:01:00.906Z,4.30
2022-11-19T05:03:27.494Z,4.47
2022-11-19T05:05:54.014Z,4.82
2022-11-19T05:08:20.586Z,5.35
2022-11-19T05:10:47.058Z,4.70
2022-11-19T05:13:13.486Z,4.88
2022-11-19T05:15:40.046Z,4.88
2022-11-19T05:18:06.620Z,5.65
2022-11-19T05:20:33.313Z,4.60
2022-11-19T05:22:59.869Z,4.70
2022-11-19T05:25:26.368Z,4.03
2022-11-19T05:27:52.884Z,4.15
2022-11-19T05:30:19.335Z,4.70
2022-11-19T05:32:47.110Z,5.03
2022-11-19T05:35:14.729Z,5.07
2022-11-19T05:37:41.171Z,5.13
2022-11-19T05:40:08.420Z,3.83
2022-11-19T05:42:34.872Z,3.80
2022-11-19T05:45:01.392Z,4.15
2022-11-19T05:47:27.864Z,3.45
2022-11-19T05:49:54.293Z,3.97
2022-11-19T05:52:20.738Z,3.85
2022-11-19T05:54:47.174Z,4.28
2022-11-19T05:57:13.637Z,3.75
2022-11-19T05:59:43.804Z,4.30
2022-11-19T06:02:11.250Z,3.67
2022-11-19T06:04:38.068Z,3.45
2022-11-19T06:07:04.644Z,3.85
2022-11-19T06:09:31.240Z,3.90
2022-11-19T06:11:57.884Z,3.70
2022-11-19T06:14:25.710Z,3.40
2022-11-19T06:16:54.240Z,3.10
2022-11-19T06:19:21.414Z,4.70
2022-11-19T06:21:48.689Z,3.55
2022-11-19T06:24:15.523Z,3.17
2022-11-19T06:26:42.915Z,3.13
2022-11-19T06:29:10.572Z,4.88
2022-11-19T06:31:37.087Z,3.42
2022-11-19T06:34:03.585Z,3.10
2022-11-19T06:36:37.301Z,4.90
2022-11-19T06:39:05.635Z,3.60
2022-11-19T06:41:32.172Z,3.63
2022-11-19T06:43:58.626Z,3.92
2022-11-19T06:46:25.110Z,3.70
2022-11-19T06:48:51.702Z,3.47
2022-11-19T06:51:18.279Z,3.72
2022-11-19T06:53:44.720Z,3.80
2022-11-19T06:56:11.253Z,3.08
2022-11-19T06:58:37.905Z,3.35
2022-11-19T07:01:04.499Z,3.53
2022-11-19T07:03:31.028Z,4.05
2022-11-19T07:06:00.136Z,4.22
2022-11-19T07:08:26.711Z,2.90
2022-11-19T07:10:53.519Z,3.25
2022-11-19T07:13:20.018Z,3.33
2022-11-19T07:15:46.575Z,3.13
2022-11-19T07:18:13.999Z,4.68
2022-11-19T07:20:40.717Z,3.92
2022-11-19T07:23:11.266Z,3.15
2022-11-19T07:25:38.236Z,3.55
2022-11-19T07:28:05.033Z,3.40
2022-11-19T07:30:31.582Z,3.58
2022-11-19T07:32:58.292Z,3.08
2022-11-19T07:35:24.931Z,3.38
2022-11-19T07:37:51.469Z,3.75
2022-11-19T07:40:17.973Z,3.40
2022-11-19T07:42:50.241Z,3.33
2022-11-19T07:45:21.526Z,3.78
2022-11-19T07:47:48.063Z,3.30
2022-11-19T07:50:14.974Z,3.78
2022-11-19T07:52:47.728Z,3.45
2022-11-19T07:55:14.251Z,3.83
2022-11-19T07:57:40.712Z,3.22
2022-11-19T08:00:07.755Z,2.75
2022-11-19T08:02:34.253Z,3.40
2022-11-19T08:05:00.696Z,2.83
2022-11-19T08:07:27.257Z,3.17
2022-11-19T08:09:53.808Z,3.70
2022-11-19T08:12:20.779Z,2.80
2022-11-19T08:14:47.228Z,3.25
2022-11-19T08:17:31.946Z,3.15
2022-11-19T08:19:58.411Z,3.15
2022-11-19T08:22:24.944Z,2.90
2022-11-19T08:24:51.850Z,3.13
2022-11-19T08:27:18.497Z,3.40
2022-11-19T08:29:44.994Z,3.17
2022-11-19T08:32:11.596Z,3.00
2022-11-19T08:34:38.176Z,2.95
2022-11-19T08:37:04.653Z,3.22
2022-11-19T08:39:31.894Z,3.13
2022-11-19T08:42:16.629Z,3.33
2022-11-19T08:44:43.083Z,3.13
2022-11-19T08:47:09.621Z,3.35
2022-11-19T08:49:36.072Z,3.30
2022-11-19T08:52:02.792Z,2.58
2022-11-19T08:54:29.310Z,3.17
2022-11-19T08:56:55.849Z,3.10
2022-11-19T08:59:25.702Z,3.10
2022-11-19T09:01:54.567Z,2.90
2022-11-19T09:04:21.343Z,2.65
2022-11-19T09:06:48.191Z,2.60
2022-11-19T09:09:14.724Z,3.33
2022-11-19T09:11:43.092Z,2.90
2022-11-19T09:14:09.996Z,2.88
2022-11-19T09:16:36.648Z,2.80
2022-11-19T09:19:07.131Z,2.95
2022-11-19T09:21:34.250Z,2.70
2022-11-19T09:24:00.745Z,3.00
2022-11-19T09:26:27.240Z,4.30
2022-11-19T09:28:53.705Z,2.83
2022-11-19T09:31:20.785Z,2.80
2022-11-19T09:33:51.606Z,3.15
2022-11-19T09:36:19.529Z,3.00
2022-11-19T09:38:47.459Z,3.10
2022-11-19T09:41:45.102Z,2.65
2022-11-19T09:44:22.664Z,2.88
2022-11-19T09:47:27.098Z,2.80
2022-11-19T09:50:06.241Z,2.53
2022-11-19T09:52:36.369Z,2.95
2022-11-19T09:55:03.558Z,2.72
2022-11-19T09:57:43.284Z,2.90
2022-11-19T10:00:13.185Z,2.65
2022-11-19T10:02:39.784Z,2.67
2022-11-19T10:05:06.937Z,2.95
2022-11-19T10:07:48.803Z,2.75
2022-11-19T10:10:36.265Z,2.78
2022-11-19T10:13:12.110Z,2.75
2022-11-19T10:16:06.140Z,2.83
2022-11-19T10:19:05.850Z,2.75
2022-11-19T10:21:32.639Z,3.28
2022-11-19T10:24:08.718Z,2.80
2022-11-19T10:26:38.990Z,2.47
2022-11-19T10:29:20.054Z,2.65
2022-11-19T10:31:49.936Z,2.88
2022-11-19T10:34:19.590Z,3.00
2022-11-19T10:37:01.373Z,2.45
2022-11-19T10:39:35.560Z,2.58
2022-11-19T10:42:11.155Z,2.72
2022-11-19T10:44:43.884Z,3.50
2022-11-19T10:47:18.217Z,2.42
2022-11-19T10:49:45.385Z,3.05
2022-11-19T10:52:38.048Z,3.00
2022-11-19T10:55:25.129Z,2.60
2022-11-19T10:58:29.428Z,2.92
2022-11-19T11:00:59.466Z,2.45
2022-11-19T11:03:34.345Z,2.90
2022-11-19T11:06:06.679Z,2.50
2022-11-19T11:08:34.244Z,2.60
2022-11-19T11:11:01.257Z,2.67
2022-11-19T11:13:59.062Z,3.38
2022-11-19T11:16:38.548Z,2.45
2022-11-19T11:19:13.730Z,2.70
2022-11-19T11:21:43.069Z,2.38
2022-11-19T11:24:11.725Z,2.33
2022-11-19T11:26:38.461Z,2.38
2022-11-19T11:29:13.947Z,2.67
2022-11-19T11:31:46.191Z,2.13
2022-11-19T11:34:42.150Z,2.55
2022-11-19T11:37:10.997Z,2.38
2022-11-19T11:39:40.763Z,2.33
2022-11-19T11:42:17.396Z,2.28
2022-11-19T11:44:59.100Z,2.55
2022-11-19T11:47:31.063Z,2.97
2022-11-19T11:50:03.462Z,2.70
2022-11-19T11:52:34.197Z,2.33
2022-11-19T11:55:07.227Z,2.75
2022-11-19T11:57:36.845Z,2.22
2022-11-19T12:00:32.163Z,2.40
2022-11-19T12:03:06.264Z,2.42
2022-11-19T12:06:11.433Z,2.55
2022-11-19T12:08:56.724Z,2.30
2022-11-19T12:11:54.141Z,2.30
2022-11-19T12:15:04.164Z,2.65
2022-11-19T12:17:36.402Z,2.33
2022-11-19T12:20:44.132Z,2.42
2022-11-19T12:24:02.345Z,3.08
2022-11-19T12:26:40.977Z,2.60
2022-11-19T12:29:27.689Z,2.70
2022-11-19T12:32:09.022Z,2.55
2022-11-19T12:35:00.554Z,2.63
2022-11-19T12:37:45.505Z,2.22
2022-11-19T12:40:41.604Z,2.55
2022-11-19T12:43:33.327Z,2.50
2022-11-19T12:46:20.558Z,2.17
2022-11-19T12:49:10.236Z,2.15
2022-11-19T12:51:47.778Z,2.10
2022-11-19T12:54:44.520Z,2.55
2022-11-19T12:57:26.304Z,1.70
2022-11-19T13:00:11.100Z,3.08
2022-11-19T13:02:45.179Z,2.38
2022-11-19T13:05:22.645Z,1.95
2022-11-19T13:07:57.932Z,2.20
2022-11-19T13:10:34.581Z,2.17
2022-11-19T13:13:01.864Z,2.63
2022-11-19T13:15:34.282Z,2.35
2022-11-19T13:18:04.999Z,2.60
2022-11-19T13:20:36.993Z,2.05
2022-11-19T13:23:06.173Z,2.17
2022-11-19T13:25:40.002Z,2.70
2022-11-19T13:28:29.225Z,2.17
2022-11-19T13:31:01.118Z,2.13
2022-11-19T13:33:39.076Z,2.53
2022-11-19T13:36:28.795Z,2.20
2022-11-19T13:38:59.119Z,2.28
2022-11-19T13:41:31.068Z,2.33
2022-11-19T13:44:17.069Z,1.92
2022-11-19T13:46:54.833Z,2.40
2022-11-19T13:49:30.034Z,2.10
2022-11-19T13:52:03.586Z,2.20
2022-11-19T13:54:35.662Z,2.03
2022-11-19T13:57:04.585Z,2.10
2022-11-19T13:59:39.039Z,2.28
2022-11-19T14:02:30.477Z,2.42
2022-11-19T14:04:59.620Z,1.92
2022-11-19T14:08:07.160Z,2.15
2022-11-19T14:10:37.667Z,2.10
2022-11-19T14:13:25.719Z,2.05
2022-11-19T14:16:31.764Z,1.92
2022-11-19T14:19:22.794Z,2.10
2022-11-19T14:22:12.965Z,2.25
2022-11-19T14:24:57.601Z,2.17
2022-11-19T14:27:28.029Z,2.08
2022-11-19T14:30:16.145Z,1.95
2022-11-19T14:32:56.249Z,2.15
2022-11-19T14:35:25.619Z,2.20
2022-11-19T14:37:55.762Z,1.70
2022-11-19T14:40:26.741Z,2.38
2022-11-19T14:43:20.658Z,1.90
2022-11-19T14:46:05.217Z,2.20
2022-11-19T14:48:40.750Z,2.03
2022-11-19T14:51:08.770Z,2.17
2022-11-19T14:53:49.464Z,2.25
2022-11-19T14:56:19.453Z,1.98
2022-11-19T14:59:10.072Z,1.70
2022-11-19T15:01:48.806Z,1.80
2022-11-19T15:04:16.529Z,2.60
2022-11-19T15:06:47.918Z,2.90
2022-11-19T15:09:14.400Z,2.55
2022-11-19T15:11:56.023Z,1.92
2022-11-19T15:14:28.423Z,1.80
2022-11-19T15:16:57.411Z,2.00
2022-11-19T15:19:32.742Z,1.65
2022-11-19T15:22:26.279Z,2.22
2022-11-19T15:25:05.001Z,1.98
2022-11-19T15:27:56.587Z,2.75
2022-11-19T15:30:42.372Z,2.17
2022-11-19T15:33:08.800Z,1.80
2022-11-19T15:35:45.058Z,2.20
2022-11-19T15:38:19.992Z,1.98
2022-11-19T15:40:48.326Z,2.00
2022-11-19T15:43:36.430Z,1.83
2022-11-19T15:46:11.881Z,2.00
2022-11-19T15:48:51.460Z,2.05
2022-11-19T15:51:19.195Z,2.15
2022-11-19T15:54:06.393Z,1.95
2022-11-19T15:56:37.686Z,2.10
2022-11-19T15:59:07.249Z,1.65
2022-11-19T16:01:37.636Z,1.88
2022-11-19T16:04:13.496Z,2.05
2022-11-19T16:06:45.361Z,1.75
2022-11-19T16:09:19.260Z,2.10
2022-11-19T16:12:05.013Z,1.85
2022-11-19T16:14:50.273Z,1.83
2022-11-19T16:17:43.529Z,1.98
2022-11-19T16:20:10.528Z,3.55
2022-11-19T16:23:05.296Z,2.63
2022-11-19T16:25:39.132Z,1.90
2022-11-19T16:28:18.349Z,2.08
2022-11-19T16:30:49.637Z,2.30
2022-11-19T16:33:25.251Z,2.10
2022-11-19T16:36:09.747Z,1.83
2022-11-19T16:38:37.896Z,1.90
2022-11-19T16:41:23.411Z,1.73
2022-11-19T16:43:50.453Z,1.50
2022-11-19T16:46:20.641Z,1.98
2022-11-19T16:48:50.032Z,1.80
2022-11-19T16:52:00.843Z,1.60
2022-11-19T16:54:42.833Z,2.50
2022-11-19T16:57:30.776Z,2.38
2022-11-19T17:00:00.340Z,1.67
2022-11-19T17:02:39.686Z,2.08
2022-11-19T17:05:10.271Z,1.70
2022-11-19T17:07:36.978Z,2.53
2022-11-19T17:10:12.829Z,1.70
2022-11-19T17:13:04.133Z,1.60
2022-11-19T17:15:42.654Z,2.53
2022-11-19T17:18:33.038Z,3.00
2022-11-19T17:21:08.098Z,2.03
2022-11-19T17:23:46.147Z,1.65
2022-11-19T17:26:17.868Z,1.88
2022-11-19T17:28:47.599Z,1.95
2022-11-19T17:31:18.856Z,1.67
2022-11-19T17:34:08.002Z,1.80
2022-11-19T17:36:34.434Z,2.53
2022-11-19T17:39:00.937Z,1.75
2022-11-19T17:41:47.510Z,2.35
2022-11-19T17:44:31.830Z,1.95
2022-11-19T17:46:59.190Z,2.03
2022-11-19T17:49:25.710Z,1.92
2022-11-19T17:51:52.957Z,1.70
2022-11-19T17:54:20.090Z,1.90
2022-11-19T17:56:46.905Z,1.98
2022-11-19T17:59:13.546Z,1.73
2022-11-19T18:01:40.010Z,2.45
2022-11-19T18:04:06.550Z,1.63
2022-11-19T18:06:33.600Z,2.55
2022-11-19T18:09:00.097Z,1.60
2022-11-19T18:11:26.690Z,2.53
2022-11-19T18:13:57.131Z,1.90
2022-11-19T18:16:25.994Z,3.15
2022-11-19T18:18:52.504Z,1.75
2022-11-19T18:21:21.204Z,1.60
2022-11-19T18:23:49.500Z,2.28
2022-11-19T18:26:18.271Z,2.45
2022-11-19T18:28:48.836Z,1.70
2022-11-19T18:31:21.585Z,1.95
2022-11-19T18:33:48.614Z,1.77
2022-11-19T18:36:16.951Z,2.05
2022-11-19T18:38:43.612Z,2.38
2022-11-19T18:41:11.351Z,1.92
2022-11-19T18:43:56.495Z,2.17
2022-11-19T18:46:23.408Z,1.83
2022-11-19T18:48:49.922Z,1.85
2022-11-19T18:51:16.475Z,2.08
2022-11-19T18:53:42.948Z,1.95
2022-11-19T18:56:15.089Z,1.77
2022-11-19T18:58:41.586Z,2.00
2022-11-19T19:01:08.524Z,3.50
2022-11-19T19:03:35.843Z,2.15
2022-11-19T19:06:04.260Z,1.77
2022-11-19T19:08:31.577Z,2.20
2022-11-19T19:11:17.834Z,2.55
2022-11-19T19:13:45.297Z,1.88
2022-11-19T19:16:12.639Z,2.05
2022-11-19T19:18:39.319Z,2.13
2022-11-19T19:21:19.307Z,2.28
2022-11-19T19:23:46.121Z,2.03
2022-11-19T19:26:14.332Z,2.33
2022-11-19T19:28:40.789Z,2.13
2022-11-19T19:31:07.429Z,2.50
2022-11-19T19:33:34.042Z,2.33
2022-11-19T19:36:05.058Z,2.72
2022-11-19T19:38:32.263Z,2.58
2022-11-19T19:41:06.554Z,2.28
2022-11-19T19:43:33.281Z,2.40
2022-11-19T19:46:06.665Z,2.13
2022-11-19T19:48:33.347Z,2.13
2022-11-19T19:50:59.846Z,2.42
2022-11-19T19:53:26.420Z,2.75
2022-11-19T19:56:02.893Z,2.55
2022-11-19T19:58:29.577Z,3.17
2022-11-19T20:01:03.419Z,2.40
2022-11-19T20:03:30.643Z,2.65
2022-11-19T20:05:57.142Z,2.47
2022-11-19T20:08:23.599Z,2.00
2022-11-19T20:10:50.045Z,2.35
2022-11-19T20:13:28.601Z,2.10
2022-11-19T20:15:56.578Z,2.53
2022-11-19T20:18:24.487Z,2.50
2022-11-19T20:20:51.276Z,2.50
2022-11-19T20:23:18.027Z,2.47
2022-11-19T20:25:44.541Z,2.97
2022-11-19T20:28:11.285Z,2.03
2022-11-19T20:30:37.772Z,2.03
2022-11-19T20:33:04.236Z,1.75
2022-11-19T20:35:30.812Z,1.90
2022-11-19T20:38:02.182Z,2.40
2022-11-19T20:40:29.917Z,2.70
2022-11-19T20:43:15.140Z,2.45
2022-11-19T20:45:41.591Z,2.47
2022-11-19T20:48:08.086Z,2.28
2022-11-19T20:50:34.521Z,1.98
2022-11-19T20:53:01.859Z,2.08
2022-11-19T20:55:28.394Z,2.33
2022-11-19T20:57:55.789Z,2.53
2022-11-19T21:00:22.305Z,2.55
2022-11-19T21:02:48.732Z,2.33
2022-11-19T21:05:15.171Z,2.38
2022-11-19T21:07:41.657Z,2.58
2022-11-19T21:10:08.488Z,2.10
2022-11-19T21:12:34.997Z,2.63
2022-11-19T21:15:02.179Z,1.70
2022-11-19T21:17:28.703Z,3.03
2022-11-19T21:19:55.193Z,2.55
2022-11-19T21:22:21.687Z,2.83
2022-11-19T21:24:48.214Z,2.35
2022-11-19T21:27:14.667Z,2.13
2022-11-19T21:29:41.543Z,3.45
2022-11-19T21:32:11.029Z,2.20
2022-11-19T21:34:39.140Z,2.35
2022-11-19T21:37:05.619Z,2.10
2022-11-19T21:39:32.105Z,2.00
2022-11-19T21:41:58.558Z,1.88
2022-11-19T21:44:25.106Z,2.38
2022-11-19T21:46:51.814Z,2.15
2022-11-19T21:49:19.062Z,1.92
2022-11-19T21:51:45.809Z,2.22
2022-11-19T21:54:12.288Z,2.00
2022-11-19T21:56:39.230Z,1.80
2022-11-19T21:59:06.938Z,3.30
2022-11-19T22:01:33.494Z,1.42
2022-11-19T22:03:59.974Z,2.42
2022-11-19T22:06:26.572Z,2.55
2022-11-19T22:08:53.103Z,2.17
2022-11-19T22:11:32.043Z,2.38
2022-11-19T22:14:07.021Z,2.35
2022-11-19T22:16:35.755Z,2.25
2022-11-19T22:19:02.510Z,2.80
2022-11-19T22:21:29.482Z,2.55
2022-11-19T22:23:56.173Z,2.50
2022-11-19T22:26:22.825Z,2.83
2022-11-19T22:28:49.416Z,3.65
2022-11-19T22:31:15.946Z,2.25
2022-11-19T22:33:42.823Z,2.72
2022-11-19T22:36:10.860Z,1.80
2022-11-19T22:38:38.301Z,2.20
2022-11-19T22:41:12.669Z,1.65
2022-11-19T22:43:40.404Z,2.63
2022-11-19T22:46:08.735Z,2.47
2022-11-19T22:48:35.796Z,2.45
2022-11-19T22:51:14.554Z,2.75
2022-11-19T22:53:41.334Z,2.10
2022-11-19T22:56:12.159Z,1.88
2022-11-19T22:58:38.942Z,2.50
2022-11-19T23:01:07.404Z,1.55
2022-11-19T23:03:34.118Z,2.45
2022-11-19T23:06:00.595Z,1.90
2022-11-19T23:08:27.121Z,2.40
2022-11-19T23:11:01.994Z,1.75
2022-11-19T23:13:33.912Z,2.03
2022-11-19T23:16:13.902Z,1.77
2022-11-19T23:18:45.631Z,2.15
2022-11-19T23:21:18.108Z,2.25
2022-11-19T23:23:44.763Z,2.17
2022-11-19T23:26:13.402Z,2.03
2022-11-19T23:28:40.394Z,2.38
2022-11-19T23:31:14.553Z,2.72
2022-11-19T23:33:41.277Z,2.30
2022-11-19T23:36:13.786Z,1.70
2022-11-19T23:38:40.646Z,1.65
2022-11-19T23:41:09.251Z,3.05
2022-11-19T23:43:36.025Z,1.90
2022-11-19T23:46:14.961Z,2.15
2022-11-19T23:48:43.764Z,2.50
2022-11-19T23:51:16.821Z,2.83
2022-11-19T23:53:44.085Z,1.85
2022-11-19T23:56:11.598Z,2.47
2022-11-19T23:58:38.372Z,1.92
